Chaybukha Airport

UHMG · Magadan Oblast, Rusland

METAR historie UHMG · Chaybukha Airport

Hieronder zie je METAR's van de afgelopen dagen. Kies een jaar om door oudere METAR's te bladeren, vanaf het jaar 2007.

18 juli 2024

Tijd Code Weer Temp. Zicht Plafond Wind METAR/SPECI
19:30
V
15 °C 10 km+ 3.800 ft 220° 220° 5 kt METAR UHMM 180830Z 22003MPS 9999 BKN038 15/10 Q1008 R10/70D NOSIG RMK QFE741 R28/27003MPS
19:30
V
15 °C 10 km+ 3.800 ft 220° 220° 5 kt METAR UHMM 180830Z 22003MPS 9999 BKN038 15/10 Q1008 R10/CLRD70 NOSIG RMK QFE741 R28/27003MPS
19:00
V
15 °C 10 km+ 4.200 ft 220° 220° 5 kt METAR UHMM 180800Z 22003MPS 9999 BKN042 15/10 Q1008 R10/CLRD70 NOSIG RMK QFE741 R28/25003MPS
18:30
V
15 °C 10 km+ 3.800 ft 220° 220° 5 kt METAR UHMM 180730Z 22003MPS 9999 BKN038 15/10 Q1008 R10/CLRD70 NOSIG RMK QFE741 R28/25002MPS
18:00
V
15 °C 10 km+ 3.800 ft 210° 210° 5 kt METAR UHMM 180700Z 21003MPS 9999 BKN038 15/10 Q1008 R10/70D NOSIG RMK QFE741 R28/28003MPS
17:30
V
15 °C 10 km+ 4.000 ft 260° 260° 5 kt METAR UHMM 180630Z 26003MPS 9999 BKN040 15/10 Q1008 R28/CLRD70 NOSIG RMK QFE741 R10/20003MPS
17:00
V
15 °C 10 km+ 4.300 ft 250° 250° 3 kt METAR UHMM 180600Z 25002MPS 210V280 9999 BKN043 15/10 Q1009 R28/CLRD70 NOSIG RMK QFE741 R10/20003MPS
16:30
V
15 °C 10 km+ 4.300 ft 270° 270° 7 kt METAR UHMM 180530Z 27004MPS 9999 BKN043 15/10 Q1009 R28/CLRD70 NOSIG RMK QFE741 R10/21003MPS
16:00
V
15 °C 10 km+ 4.100 ft 260° 260° 7 kt METAR UHMM 180500Z 26004MPS 9999 BKN041 15/10 Q1009 R28/70D NOSIG RMK QFE741 R10/23002MPS
15:30
V
16 °C 10 km+ - 260° 260° 9 kt METAR UHMM 180430Z 26005MPS 9999 SCT033 16/11 Q1009 R28/CLRD70 NOSIG RMK MT OBSC QFE741 R10/21004MPS
15:00
V
15 °C 10 km+ - 260° 260° 7 kt METAR UHMM 180400Z 26004MPS 9999 SCT032 15/11 Q1009 R28/CLRD70 NOSIG RMK MT OBSC QFE741 R10/21003MPS
14:30
V
16 °C 10 km+ - 250° 250° 9 kt METAR UHMM 180330Z 25005MPS 9999 SCT040 16/10 Q1009 R28/70D NOSIG RMK QFE741 R10/21004MPS
14:00
V
16 °C 10 km+ - 280° 280° 9 kt METAR UHMM 180300Z 28005MPS 9999 SCT040 16/09 Q1009 R28/70D NOSIG RMK QFE741 R10/22005MPS
13:30
V
16 °C 10 km+ - 230° 230° 9 kt METAR UHMM 180230Z 23005MPS 9999 FEW040 16/09 Q1009 R10/CLRD70 NOSIG RMK QFE742 R28/28005MPS
13:00
V
16 °C 10 km+ - 230° 230° 9 kt METAR UHMM 180200Z 23005MPS 9999 FEW040 16/10 Q1009 R10/70D NOSIG RMK QFE742 R28/26004MPS
12:30
V
17 °C 10 km+ - 210° 210° 9 kt METAR UHMM 180130Z 21005MPS 9999 FEW040 17/09 Q1009 R10/CLRD70 NOSIG RMK QFE742 R28/27005MPS
12:00
V
18 °C 10 km+ - 220° 220° 7 kt METAR UHMM 180100Z 22004MPS 9999 FEW040 18/08 Q1009 R10/CLRD70 NOSIG RMK QFE742 R28/27004MPS
11:30
V
18 °C 10 km+ - 210° 210° 5 kt METAR UHMM 180030Z 21003MPS 9999 FEW040 18/09 Q1009 R10/CLRD70 NOSIG RMK QFE742 R28/27003MPS
11:00
V
18 °C 10 km+ - 230° 230° 3 kt METAR UHMM 180000Z 23002MPS 9999 FEW046 18/08 Q1009 R10/70D NOSIG RMK QFE742 R28/33002MPS 270V040
10:30
V
16 °C 10 km+ - 250° 250° 3 kt METAR UHMM 172330Z 25002MPS 210V300 9999 FEW046 16/08 Q1009 R10/CLRD70 NOSIG RMK QFE742 R28/29002MPS 240V340
10:00
V
15 °C 10 km+ - 260° 260° 1 kt METAR UHMM 172300Z 26001MPS 9999 FEW046 15/08 Q1009 R10/CLRD70 NOSIG RMK QFE742 R28/31002MPS 270V340
09:30
V
15 °C 10 km+ - 230° 230° 3 kt METAR UHMM 172230Z 23002MPS 180V260 9999 NSC 15/09 Q1009 R10/CLRD70 NOSIG RMK QFE742 R28/27002MPS
09:00
V
14 °C 10 km+ - 360° 360° 0 kt METAR UHMM 172200Z 00000MPS 9999 NSC 14/08 Q1009 R10/CLRD70 NOSIG RMK QFE742 R28/00000MPS
08:30
V
13 °C 10 km+ - 310° 310° 1 kt METAR UHMM 172130Z 31001MPS 9999 NSC 13/08 Q1010 R10/CLRD70 NOSIG RMK QFE742 R28/00000MPS
08:00
V
10 °C 10 km+ - 190° 190° 1 kt METAR UHMM 172100Z 19001MPS 9999 NSC 10/08 Q1010 R10/CLRD70 NOSIG RMK QFE743 R28/26001MPS
07:00
V
7 °C 10 km+ - 360° 360° 0 kt METAR UHMM 172000Z 00000MPS 9999 NSC 07/07 Q1010 R10/70D RMK QFE743 R28/28001MPS
06:00
V
5 °C 10 km+ - 360° 360° 0 kt METAR UHMM 171900Z 00000MPS 9999 NSC 05/05 Q1010 RMK QFE743 R28/00000MPS
05:00
V
3 °C 10 km+ - 360° 360° 0 kt METAR UHMM 171800Z 00000MPS 9999 NSC 03/03 Q1010 RMK QFE742 R28/00000MPS
04:00
V
3 °C 10 km+ - 080° 080° 1 kt METAR UHMM 171700Z 08001MPS 9999 NSC 03/03 Q1010 RMK QFE742 R28/09003MPS
03:00
V
4 °C 10 km+ - 080° 080° 1 kt METAR UHMM 171600Z 08001MPS 9999 NSC 04/04 Q1010 RMK QFE743 R28/10002MPS
02:00
V
5 °C 10 km+ - 010° 010° 1 kt METAR UHMM 171500Z 01001MPS 9999 NSC 05/05 Q1010 RMK QFE743 R28/08004MPS
01:00
V
7 °C 10 km+ - 080° 080° 3 kt METAR UHMM 171400Z 08002MPS 9999 NSC 07/07 Q1011 RMK QFE743 R28/08003MPS
00:00
V
8 °C 10 km+ - 070° 070° 1 kt METAR UHMM 171300Z 07001MPS 9999 NSC 08/08 Q1011 RMK QFE743 R28/10002MPS

17 juli 2024

Tijd Code Weer Temp. Zicht Plafond Wind METAR/SPECI
23:00
V
9 °C 10 km+ - 360° 360° 0 kt METAR UHMM 171200Z 00000MPS 9999 NSC 09/08 Q1010 RMK QFE743 R28/08002MPS 050V120
22:00
V
12 °C 10 km+ - 270° 270° 1 kt METAR UHMM 171100Z 27001MPS 9999 NSC 12/08 Q1010 RMK QFE743 R28/19001MPS
21:00
V
16 °C 10 km+ - 260° 260° 1 kt METAR UHMM 171000Z 26001MPS 9999 NSC 16/07 Q1010 RMK QFE743 R28/33002MPS
20:00
V
17 °C 10 km+ - 210° 210° 7 kt METAR UHMM 170900Z 21004MPS 9999 NSC 17/08 Q1010 R10/70D NOSIG RMK QFE743 R28/26004MPS
19:30
V
18 °C 10 km+ - 220° 220° 9 kt METAR UHMM 170830Z 22005MPS 9999 NSC 18/07 Q1010 R10/CLRD70 NOSIG RMK QFE743 R28/27003MPS
19:00
V
18 °C 10 km+ - 210° 210° 9 kt METAR UHMM 170800Z 21005MPS 9999 NSC 18/07 Q1010 R10/CLRD70 NOSIG RMK QFE743 R28/25004MPS
18:30
V
19 °C 10 km+ - 220° 220° 11 kt METAR UHMM 170730Z 22006MPS 9999 NSC 19/08 Q1010 R10/CLRD70 NOSIG RMK QFE743 R28/27005MPS
18:00
V
19 °C 10 km+ - 230° 230° 13 kt METAR UHMM 170700Z 23007MPS 9999 FEW040 19/07 Q1010 R10/70D NOSIG RMK QFE743 R28/27006MPS
17:30
V
20 °C 10 km+ - 230° 230° 11 kt METAR UHMM 170630Z 23006MPS 9999 FEW040 20/08 Q1010 R10/CLRD70 NOSIG RMK QFE742 R28/26006MPS
17:00
V
21 °C 10 km+ - 220° 220° 11 kt METAR UHMM 170600Z 22006MPS 9999 FEW040 21/08 Q1010 R10/70D NOSIG RMK QFE743 R28/27006MPS
16:30
V
21 °C 10 km+ - 220° 220° 11 kt METAR UHMM 170530Z 22006MPS 9999 SCT040 21/09 Q1010 R10/CLRD70 NOSIG RMK QFE743 R28/27006MPS
16:00
V
21 °C 10 km+ - 210° 210° 11 kt METAR UHMM 170500Z 21006MPS 9999 SCT040 21/09 Q1010 R10/CLRD70 NOSIG RMK QFE743 R28/25005MPS
15:30
V
21 °C 10 km+ - 210° 210° 11 kt METAR UHMM 170430Z 21006MPS 9999 SCT040 21/09 Q1010 R10/CLRD70 NOSIG RMK QFE743 R28/26005MPS
15:00
V
22 °C 10 km+ - 210° 210° 11 kt METAR UHMM 170400Z 21006MPS 170V250 9999 SCT040 22/09 Q1010 R10/70D NOSIG RMK QFE743 R28/26006MPS
14:30
V
22 °C 10 km+ - 190° 190° 9 kt METAR UHMM 170330Z 19005MPS 160V230 9999 FEW040 SCT056 22/09 Q1010 R10/CLRD70 NOSIG RMK QFE742 R28/23004MPS
14:00
V
21 °C 10 km+ 5.900 ft 150° 150° 3 kt METAR UHMM 170300Z 15002MPS 9999 SCT040 BKN059 21/08 Q1010 R10/CLRD70 NOSIG RMK QFE742 R28/22003MPS 190V260
13:30
V
20 °C 10 km+ 5.700 ft 310° 310° 1 kt METAR UHMM 170230Z 31001MPS 9999 SCT040 BKN057 20/08 Q1010 R10/CLRD70 NOSIG RMK QFE743 R28/13001MPS
13:00
V
21 °C 10 km+ - 250° 250° 5 kt METAR UHMM 170200Z 25003MPS 200V310 9999 SCT040 21/08 Q1010 R10/CLRD70 NOSIG RMK QFE743 R28/19003MPS 160V230
12:30
V
21 °C 10 km+ - 210° 210° 3 kt METAR UHMM 170130Z 21002MPS 140V290 9999 SCT040 21/09 Q1010 R10/CLRD70 NOSIG RMK QFE743 R28/24002MPS 190V320
12:00
V
20 °C 10 km+ - 170° 170° 3 kt METAR UHMM 170100Z 17002MPS 140V210 9999 SCT040 20/08 Q1010 R10/70D NOSIG RMK QFE743 R28/28003MPS
11:30
V
19 °C 10 km+ - 160° 160° 1 kt METAR UHMM 170030Z 16001MPS 9999 SCT040 19/09 Q1010 R10/CLRD70 NOSIG RMK QFE743 R28/14001MPS
11:00
V
19 °C 10 km+ - 150° 150° 3 kt METAR UHMM 170000Z 15002MPS 9999 SCT040 19/09 Q1010 R10/70D NOSIG RMK QFE743 R28/14002MPS 100V230
10:30
V
18 °C 10 km+ - 010° 010° 1 kt METAR UHMM 162330Z 01001MPS 9999 FEW040 18/09 Q1010 R10/CLRD70 NOSIG RMK QFE743 R28/12002MPS
10:00
V
18 °C 10 km+ - 120° 120° 3 kt METAR UHMM 162300Z 12002MPS 070V150 9999 FEW040 18/09 Q1011 R10/70D NOSIG RMK QFE743 R28/09003MPS 040V130
09:30
V
17 °C 10 km+ - 080° 080° 3 kt METAR UHMM 162230Z 08002MPS 9999 FEW040 17/08 Q1011 R10/CLRD70 NOSIG RMK QFE743 R28/12002MPS 070V150
09:00
V
17 °C 10 km+ - 080° 080° 3 kt METAR UHMM 162200Z 08002MPS 040V120 9999 FEW040 17/07 Q1011 R10/70D NOSIG RMK QFE743 R28/10002MPS 060V140
08:30
V
16 °C 10 km+ - 100° 100° 3 kt METAR UHMM 162130Z 10002MPS 9999 FEW040 16/08 Q1011 R10/CLRD70 NOSIG RMK QFE743 R28/11002MPS
08:00
V
15 °C 10 km+ - 130° 130° 1 kt METAR UHMM 162100Z 13001MPS 9999 FEW040 15/09 Q1011 R10/CLRD70 NOSIG RMK QFE743 R28/13002MPS
07:00
V
12 °C 10 km+ - 250° 250° 1 kt METAR UHMM 162000Z 25001MPS 9999 FEW005 SCT040 12/11 Q1011 R10/70D RMK MT OBSC QFE743 R28/12002MPS
06:00
V
10 °C 10 km+ - 090° 090° 1 kt METAR UHMM 161900Z 09001MPS 9999 FEW005 SCT040CB 10/10 Q1011 RMK MT OBSC QFE743 R28/09002MPS
05:36
V
10 °C 10 km+ 4.000 ft 080° 080° 1 kt METAR UHMM 161836Z 08001MPS 9999 SCT005 BKN040 10/10 Q1011 RMK MT OBSC QFE743 R28/07003MPS
05:28
M
9 °C 5 km 4.000 ft 090° 090° 3 kt METAR UHMM 161828Z 09002MPS 5000 1600E BR SCT005 BKN040 09/09 Q1011 RMK MT OBSC QFE743 R28/07003MPS
05:00
L
9 °C 200 m 200 ft 360° 360° 0 kt METAR UHMM 161800Z 00000MPS 0200 0150E R10/0200N FG VV002 09/09 Q1011 RMK QBB060 QFE743 R28/05001MPS
04:00
L
9 °C 450 m 200 ft 360° 360° 0 kt METAR UHMM 161700Z 00000MPS 0450 0400W R10/0400N FG VV002 09/09 Q1010 RMK QBB070 QFE743 R28/00000MPS
03:21
L
10 °C 600 m 300 ft 300° 300° 1 kt METAR UHMM 161621Z 30001MPS 0600 0500E R10/0600D FG VV003 10/10 Q1010 RMK QBB090 QFE743 R28/33001MPS
03:13
L
10 °C 1,2 km 300 ft 300° 300° 1 kt METAR UHMM 161613Z 30001MPS 1200 1100S BR OVC003 10/10 Q1010 RMK QBB090 QFE743 R28/33001MPS
03:00
L
10 °C 10 km+ 300 ft 280° 280° 3 kt METAR UHMM 161600Z 28002MPS 9999 OVC003 10/10 Q1010 RMK QBB090 QFE743 R28/32002MPS
02:00
L
10 °C 10 km+ 400 ft 300° 300° 1 kt METAR UHMM 161500Z 30001MPS 9999 BKN004 10/10 Q1010 RMK QFE743 R28/32002MPS
01:45
L
10 °C 10 km+ 400 ft 310° 310° 1 kt METAR UHMM 161445Z 31001MPS 9999 BKN004 10/10 Q1010 RMK QFE743 R28/32002MPS
01:00
V
9 °C 10 km+ - 290° 290° 1 kt METAR UHMM 161400Z 29001MPS 9999 NSC 09/09 Q1010 RMK QFE743 R28/28001MPS
00:00
V
9 °C 10 km+ - 310° 310° 1 kt METAR UHMM 161300Z 31001MPS 9999 FEW050 09/09 Q1010 RMK QFE742 R28/32002MPS

16 juli 2024

Tijd Code Weer Temp. Zicht Plafond Wind METAR/SPECI
23:00
V
11 °C 10 km+ - 310° 310° 1 kt METAR UHMM 161200Z 31001MPS 9999 FEW050 11/11 Q1010 RMK QFE742 R28/34001MPS
22:00
V
12 °C 10 km+ - 220° 220° 3 kt METAR UHMM 161100Z 22002MPS 9999 SCT050 12/12 Q1009 RMK QFE742 R28/28004MPS
21:00
V
15 °C 10 km+ - 230° 230° 1 kt METAR UHMM 161000Z 23001MPS 9999 FEW040 15/10 Q1009 RMK QFE742 R28/30003MPS
20:30
V
16 °C 10 km+ - 100° 100° 1 kt METAR UHMM 160930Z 10001MPS 9999 FEW040 16/10 Q1008 R10/CLRD70 NOSIG RMK QFE741 R28/26002MPS
20:00
V
16 °C 10 km+ - 210° 210° 5 kt METAR UHMM 160900Z 21003MPS 9999 FEW040 16/10 Q1008 R10/70D NOSIG RMK QFE741 R28/28003MPS
19:30
V
17 °C 10 km+ - 210° 210° 7 kt METAR UHMM 160830Z 21004MPS 9999 FEW040 17/09 Q1008 R10/CLRD70 NOSIG RMK QFE741 R28/26004MPS
19:00
V
18 °C 10 km+ - 210° 210° 9 kt METAR UHMM 160800Z 21005MPS 9999 FEW040 18/08 Q1008 R10/CLRD70 NOSIG RMK QFE741 R28/26004G09MPS
18:30
V
18 °C 10 km+ - 210° 210° 7 kt METAR UHMM 160730Z 21004MPS 9999 FEW040 SCT050 18/08 Q1008 R10/CLRD70 NOSIG RMK QFE741 R28/27004MPS
18:00
V
18 °C 10 km+ - 220° 220° 11 kt METAR UHMM 160700Z 22006MPS 9999 SCT040 18/08 Q1007 R10/CLRD70 NOSIG RMK QFE741 R28/26005MPS
17:30
V
19 °C 10 km+ - 210° 210° 11 kt METAR UHMM 160630Z 21006MPS 9999 SCT040 19/08 Q1007 R10/70D NOSIG RMK QFE741 R28/27006MPS
17:00
V
19 °C 10 km+ - 220° 220° 11 kt METAR UHMM 160600Z 22006MPS 9999 SCT040 19/10 Q1007 R10/70D NOSIG RMK QFE741 R28/26005MPS
Wijziging doorgeven